sensor_id;sensor_type;location;lat;lon;timestamp;temperature;humidity
52439;DHT22;38359;53.150;6.504;2023-07-22T00:02:04;14.40;99.90
52439;DHT22;38359;53.150;6.504;2023-07-22T00:12:30;14.40;99.90
52439;DHT22;38359;53.150;6.504;2023-07-22T00:22:56;14.40;99.90
52439;DHT22;38359;53.150;6.504;2023-07-22T00:33:21;14.10;99.90
52439;DHT22;38359;53.150;6.504;2023-07-22T00:43:48;14.20;99.90
52439;DHT22;38359;53.150;6.504;2023-07-22T00:54:14;14.20;99.90
52439;DHT22;38359;53.150;6.504;2023-07-22T01:04:41;14.00;99.90
52439;DHT22;38359;53.150;6.504;2023-07-22T01:15:07;13.90;99.90
52439;DHT22;38359;53.150;6.504;2023-07-22T01:25:33;13.90;99.90
52439;DHT22;38359;53.150;6.504;2023-07-22T01:36:01;13.90;99.90
52439;DHT22;38359;53.150;6.504;2023-07-22T01:46:28;13.80;99.90
52439;DHT22;38359;53.150;6.504;2023-07-22T01:56:53;13.80;99.90
52439;DHT22;38359;53.150;6.504;2023-07-22T02:07:20;13.70;99.90
52439;DHT22;38359;53.150;6.504;2023-07-22T02:17:46;13.40;99.90
52439;DHT22;38359;53.150;6.504;2023-07-22T02:28:12;13.50;99.90
52439;DHT22;38359;53.150;6.504;2023-07-22T02:38:37;13.30;99.90
52439;DHT22;38359;53.150;6.504;2023-07-22T02:49:03;13.20;99.90
52439;DHT22;38359;53.150;6.504;2023-07-22T02:59:29;13.20;99.90
52439;DHT22;38359;53.150;6.504;2023-07-22T03:09:55;13.10;99.90
52439;DHT22;38359;53.150;6.504;2023-07-22T03:20:21;13.00;99.90
52439;DHT22;38359;53.150;6.504;2023-07-22T03:30:57;13.00;99.90
52439;DHT22;38359;53.150;6.504;2023-07-22T03:41:22;12.90;99.90
52439;DHT22;38359;53.150;6.504;2023-07-22T03:51:48;13.00;99.90
52439;DHT22;38359;53.150;6.504;2023-07-22T04:02:14;13.20;99.90
52439;DHT22;38359;53.150;6.504;2023-07-22T04:12:40;13.20;99.90
52439;DHT22;38359;53.150;6.504;2023-07-22T04:23:05;13.30;99.90
52439;DHT22;38359;53.150;6.504;2023-07-22T04:33:31;13.50;99.90
52439;DHT22;38359;53.150;6.504;2023-07-22T04:43:57;13.50;99.90
52439;DHT22;38359;53.150;6.504;2023-07-22T04:54:24;13.60;99.90
52439;DHT22;38359;53.150;6.504;2023-07-22T05:04:49;13.70;99.90
52439;DHT22;38359;53.150;6.504;2023-07-22T05:15:15;14.10;99.90
52439;DHT22;38359;53.150;6.504;2023-07-22T05:25:41;13.90;99.90
52439;DHT22;38359;53.150;6.504;2023-07-22T05:36:07;14.10;99.90
52439;DHT22;38359;53.150;6.504;2023-07-22T05:46:33;14.30;99.90
52439;DHT22;38359;53.150;6.504;2023-07-22T05:56:58;14.50;99.90
52439;DHT22;38359;53.150;6.504;2023-07-22T06:07:24;14.90;99.90
52439;DHT22;38359;53.150;6.504;2023-07-22T06:17:50;15.10;99.90
52439;DHT22;38359;53.150;6.504;2023-07-22T06:28:16;15.50;99.90
52439;DHT22;38359;53.150;6.504;2023-07-22T06:38:42;15.70;99.90
52439;DHT22;38359;53.150;6.504;2023-07-22T06:49:08;16.00;99.90
52439;DHT22;38359;53.150;6.504;2023-07-22T06:59:34;16.60;99.90
52439;DHT22;38359;53.150;6.504;2023-07-22T07:10:00;16.50;99.90
52439;DHT22;38359;53.150;6.504;2023-07-22T07:20:27;16.90;99.90
52439;DHT22;38359;53.150;6.504;2023-07-22T07:30:53;16.80;99.90
52439;DHT22;38359;53.150;6.504;2023-07-22T07:41:18;16.90;99.90
52439;DHT22;38359;53.150;6.504;2023-07-22T07:51:44;17.00;99.90
52439;DHT22;38359;53.150;6.504;2023-07-22T08:02:10;17.00;99.90
52439;DHT22;38359;53.150;6.504;2023-07-22T08:12:36;17.20;99.90
52439;DHT22;38359;53.150;6.504;2023-07-22T08:23:02;17.40;99.90
52439;DHT22;38359;53.150;6.504;2023-07-22T08:33:28;17.70;99.90
52439;DHT22;38359;53.150;6.504;2023-07-22T08:43:56;18.00;99.90
52439;DHT22;38359;53.150;6.504;2023-07-22T08:54:25;18.00;99.90
52439;DHT22;38359;53.150;6.504;2023-07-22T09:04:51;18.10;99.90
52439;DHT22;38359;53.150;6.504;2023-07-22T09:15:17;18.40;99.90
52439;DHT22;38359;53.150;6.504;2023-07-22T09:25:43;18.30;99.90
52439;DHT22;38359;53.150;6.504;2023-07-22T09:36:10;17.20;99.90
52439;DHT22;38359;53.150;6.504;2023-07-22T09:46:37;17.30;99.90
52439;DHT22;38359;53.150;6.504;2023-07-22T09:57:04;17.20;99.90
52439;DHT22;38359;53.150;6.504;2023-07-22T10:07:33;17.80;99.90
52439;DHT22;38359;53.150;6.504;2023-07-22T10:18:01;18.00;99.90
52439;DHT22;38359;53.150;6.504;2023-07-22T10:28:28;17.90;99.90
52439;DHT22;38359;53.150;6.504;2023-07-22T10:38:59;17.50;99.90
52439;DHT22;38359;53.150;6.504;2023-07-22T10:49:29;17.60;99.90
52439;DHT22;38359;53.150;6.504;2023-07-22T11:00:08;17.30;99.90
52439;DHT22;38359;53.150;6.504;2023-07-22T11:10:53;17.40;99.90
52439;DHT22;38359;53.150;6.504;2023-07-22T11:21:20;17.30;99.90
52439;DHT22;38359;53.150;6.504;2023-07-22T11:31:48;17.80;99.90
52439;DHT22;38359;53.150;6.504;2023-07-22T11:42:15;17.40;99.90
52439;DHT22;38359;53.150;6.504;2023-07-22T11:52:41;17.90;99.90
52439;DHT22;38359;53.150;6.504;2023-07-22T12:03:07;17.90;99.90
52439;DHT22;38359;53.150;6.504;2023-07-22T12:13:36;18.00;99.90
52439;DHT22;38359;53.150;6.504;2023-07-22T12:24:02;18.10;99.90
52439;DHT22;38359;53.150;6.504;2023-07-22T12:34:31;18.30;99.90
52439;DHT22;38359;53.150;6.504;2023-07-22T12:44:57;17.90;99.90
52439;DHT22;38359;53.150;6.504;2023-07-22T12:55:22;18.20;99.90
52439;DHT22;38359;53.150;6.504;2023-07-22T13:05:48;18.60;99.90
52439;DHT22;38359;53.150;6.504;2023-07-22T13:16:14;18.20;99.90
52439;DHT22;38359;53.150;6.504;2023-07-22T13:26:40;18.60;99.90
52439;DHT22;38359;53.150;6.504;2023-07-22T13:37:06;18.80;99.90
52439;DHT22;38359;53.150;6.504;2023-07-22T13:47:32;18.40;99.90
52439;DHT22;38359;53.150;6.504;2023-07-22T13:57:57;18.70;99.90
52439;DHT22;38359;53.150;6.504;2023-07-22T14:08:23;18.70;99.90
52439;DHT22;38359;53.150;6.504;2023-07-22T14:18:49;18.50;99.90
52439;DHT22;38359;53.150;6.504;2023-07-22T14:29:17;18.40;99.90
52439;DHT22;38359;53.150;6.504;2023-07-22T14:39:42;18.40;99.90
52439;DHT22;38359;53.150;6.504;2023-07-22T14:50:09;18.80;99.90
52439;DHT22;38359;53.150;6.504;2023-07-22T15:00:36;19.00;99.90
52439;DHT22;38359;53.150;6.504;2023-07-22T15:11:02;18.80;99.90
52439;DHT22;38359;53.150;6.504;2023-07-22T15:21:28;18.30;99.90
52439;DHT22;38359;53.150;6.504;2023-07-22T15:31:53;18.30;99.90
52439;DHT22;38359;53.150;6.504;2023-07-22T15:42:19;18.20;99.90
52439;DHT22;38359;53.150;6.504;2023-07-22T15:52:45;17.70;99.90
52439;DHT22;38359;53.150;6.504;2023-07-22T16:03:11;17.40;99.90
52439;DHT22;38359;53.150;6.504;2023-07-22T16:13:37;17.70;99.90
52439;DHT22;38359;53.150;6.504;2023-07-22T16:24:03;17.60;99.90
52439;DHT22;38359;53.150;6.504;2023-07-22T16:34:29;17.80;99.90
52439;DHT22;38359;53.150;6.504;2023-07-22T16:44:55;17.60;99.90
52439;DHT22;38359;53.150;6.504;2023-07-22T16:55:21;17.40;99.90
52439;DHT22;38359;53.150;6.504;2023-07-22T17:05:46;17.40;99.90
52439;DHT22;38359;53.150;6.504;2023-07-22T17:16:14;17.60;99.90
52439;DHT22;38359;53.150;6.504;2023-07-22T17:26:39;17.50;99.90
52439;DHT22;38359;53.150;6.504;2023-07-22T17:37:05;17.20;99.90
52439;DHT22;38359;53.150;6.504;2023-07-22T17:47:31;17.50;99.90
52439;DHT22;38359;53.150;6.504;2023-07-22T17:57:57;17.30;99.90
52439;DHT22;38359;53.150;6.504;2023-07-22T18:08:23;17.60;99.90
52439;DHT22;38359;53.150;6.504;2023-07-22T18:18:49;17.60;99.90
52439;DHT22;38359;53.150;6.504;2023-07-22T18:29:14;17.60;99.90
52439;DHT22;38359;53.150;6.504;2023-07-22T18:39:40;17.50;99.90
52439;DHT22;38359;53.150;6.504;2023-07-22T18:50:07;17.50;99.90
52439;DHT22;38359;53.150;6.504;2023-07-22T19:00:33;17.50;99.90
52439;DHT22;38359;53.150;6.504;2023-07-22T19:10:59;17.30;99.90
52439;DHT22;38359;53.150;6.504;2023-07-22T19:21:24;17.30;99.90
52439;DHT22;38359;53.150;6.504;2023-07-22T19:31:50;17.20;99.90
52439;DHT22;38359;53.150;6.504;2023-07-22T19:42:17;17.20;99.90
52439;DHT22;38359;53.150;6.504;2023-07-22T19:52:43;17.10;99.90
52439;DHT22;38359;53.150;6.504;2023-07-22T20:03:09;16.70;99.90
52439;DHT22;38359;53.150;6.504;2023-07-22T20:13:35;16.70;99.90
52439;DHT22;38359;53.150;6.504;2023-07-22T20:24:02;16.70;99.90
52439;DHT22;38359;53.150;6.504;2023-07-22T20:34:27;16.90;99.90
52439;DHT22;38359;53.150;6.504;2023-07-22T20:44:53;16.70;99.90
52439;DHT22;38359;53.150;6.504;2023-07-22T20:55:19;16.60;99.90
52439;DHT22;38359;53.150;6.504;2023-07-22T21:05:55;16.50;99.90
52439;DHT22;38359;53.150;6.504;2023-07-22T21:16:22;16.40;99.90
52439;DHT22;38359;53.150;6.504;2023-07-22T21:26:48;16.60;99.90
52439;DHT22;38359;53.150;6.504;2023-07-22T21:37:14;16.70;99.90
52439;DHT22;38359;53.150;6.504;2023-07-22T21:47:40;16.80;99.90
52439;DHT22;38359;53.150;6.504;2023-07-22T21:58:06;16.80;99.90
52439;DHT22;38359;53.150;6.504;2023-07-22T22:08:32;16.80;99.90
52439;DHT22;38359;53.150;6.504;2023-07-22T22:18:58;16.60;99.90
52439;DHT22;38359;53.150;6.504;2023-07-22T22:29:24;16.60;99.90
52439;DHT22;38359;53.150;6.504;2023-07-22T22:39:50;16.50;99.90
52439;DHT22;38359;53.150;6.504;2023-07-22T22:50:16;16.50;99.90
52439;DHT22;38359;53.150;6.504;2023-07-22T23:00:41;16.40;99.90
52439;DHT22;38359;53.150;6.504;2023-07-22T23:11:13;16.50;99.90
52439;DHT22;38359;53.150;6.504;2023-07-22T23:21:41;16.40;99.90
52439;DHT22;38359;53.150;6.504;2023-07-22T23:32:07;16.30;99.90
52439;DHT22;38359;53.150;6.504;2023-07-22T23:42:34;16.30;99.90
52439;DHT22;38359;53.150;6.504;2023-07-22T23:53:00;16.20;99.90
